Time;durP1;ratioP1;P1;durP2;ratioP2;P2;SDS_P1;SDS_P2;PMS_P1;PMS_P2;Temp;Humidity;BMP_temperature;BMP_pressure;BME280_temperature;BME280_humidity;BME280_pressure;Samples;Min_cycle;Max_cycle;Signal;HPM_P1;HPM_P2
2023/05/19 00:01:47;;;;;;;;;;;21.60;85.10;;;;;;5075922;28;20290;-54
2023/05/19 00:04:13;;;;;;;;;;;21.50;85.20;;;;;;5092876;28;19909;-53
2023/05/19 00:06:40;;;;;;;;;;;21.50;85.30;;;;;;5077219;28;19909;-52
2023/05/19 00:09:09;;;;;;;;;;;21.50;85.40;;;;;;5077129;28;19971;-52
2023/05/19 00:11:35;;;;;;;;;;;21.40;85.50;;;;;;5077164;28;20003;-54
2023/05/19 00:14:01;;;;;;;;;;;21.40;85.50;;;;;;5077035;28;19916;-52
2023/05/19 00:16:27;;;;;;;;;;;21.40;85.60;;;;;;5077042;28;19936;-49
2023/05/19 00:18:53;;;;;;;;;;;21.40;85.60;;;;;;5076952;28;19908;-53
2023/05/19 00:21:19;;;;;;;;;;;21.40;85.50;;;;;;5076615;28;20373;-52
2023/05/19 00:23:44;;;;;;;;;;;21.50;85.50;;;;;;5076583;28;19909;-51
2023/05/19 00:26:10;;;;;;;;;;;21.50;85.40;;;;;;5076842;28;20397;-53
2023/05/19 00:28:36;;;;;;;;;;;21.50;85.20;;;;;;5076766;28;19909;-54
2023/05/19 00:31:02;;;;;;;;;;;21.60;85.10;;;;;;5076515;28;20279;-51
2023/05/19 00:33:27;;;;;;;;;;;21.60;85.00;;;;;;5076415;28;19955;-53
2023/05/19 00:35:53;;;;;;;;;;;21.60;85.40;;;;;;5076667;28;19913;-49
2023/05/19 00:38:18;;;;;;;;;;;21.60;84.90;;;;;;5076295;28;19979;-53
2023/05/19 00:40:44;;;;;;;;;;;21.60;84.90;;;;;;5058656;28;19909;-49
2023/05/19 00:43:09;;;;;;;;;;;21.60;84.90;;;;;;5058045;28;19920;-52
2023/05/19 00:45:35;;;;;;;;;;;21.60;85.00;;;;;;5076479;28;19912;-53
2023/05/19 00:48:00;;;;;;;;;;;21.60;85.10;;;;;;5076367;28;19912;-52
2023/05/19 00:50:27;;;;;;;;;;;21.50;85.10;;;;;;5076006;28;19908;-55
2023/05/19 00:52:53;;;;;;;;;;;21.50;85.30;;;;;;5076094;28;20256;-50
2023/05/19 00:55:20;;;;;;;;;;;21.50;85.40;;;;;;5075949;28;19912;-54
2023/05/19 00:57:45;;;;;;;;;;;21.50;85.50;;;;;;5075961;28;19917;-51
2023/05/19 01:00:12;;;;;;;;;;;21.40;85.50;;;;;;5076270;28;19965;-53
2023/05/19 01:02:38;;;;;;;;;;;21.40;85.60;;;;;;5076244;28;20366;-54
2023/05/19 01:05:05;;;;;;;;;;;21.40;85.60;;;;;;5075919;28;19909;-53
2023/05/19 01:07:31;;;;;;;;;;;21.40;85.60;;;;;;5076110;28;19912;-53
2023/05/19 01:09:57;;;;;;;;;;;21.50;85.60;;;;;;5075787;28;20287;-54
2023/05/19 01:12:22;;;;;;;;;;;21.50;85.40;;;;;;5075020;28;19919;-53
2023/05/19 01:14:48;;;;;;;;;;;21.60;85.70;;;;;;5075621;28;20004;-51
2023/05/19 01:17:19;;;;;;;;;;;21.70;85.00;;;;;;5075601;28;19912;-52
2023/05/19 01:20:05;;;;;;;;;;;21.70;84.80;;;;;;5075903;28;19908;-54
2023/05/19 01:22:31;;;;;;;;;;;21.80;84.60;;;;;;5075617;28;19920;-53
2023/05/19 01:24:56;;;;;;;;;;;21.90;84.60;;;;;;5075805;28;20347;-51
2023/05/19 01:27:41;;;;;;;;;;;21.80;84.50;;;;;;5075701;28;20385;-50
2023/05/19 01:30:09;;;;;;;;;;;21.80;84.50;;;;;;5075698;28;20279;-51
2023/05/19 01:32:35;;;;;;;;;;;21.70;84.60;;;;;;5075529;28;20313;-51
2023/05/19 01:35:02;;;;;;;;;;;21.70;84.70;;;;;;5075588;28;20291;-50
2023/05/19 01:37:28;;;;;;;;;;;21.60;84.80;;;;;;5075252;28;19912;-54
2023/05/19 01:39:54;;;;;;;;;;;21.60;84.90;;;;;;5075175;28;19912;-51
2023/05/19 01:42:21;;;;;;;;;;;21.60;85.00;;;;;;5057209;28;19997;-53
2023/05/19 01:44:46;;;;;;;;;;;21.50;85.10;;;;;;5074929;28;19928;-52
2023/05/19 01:47:12;;;;;;;;;;;21.50;85.20;;;;;;5075256;28;19908;-50
2023/05/19 01:49:37;;;;;;;;;;;21.50;85.40;;;;;;5057402;28;20333;-48
2023/05/19 01:52:03;;;;;;;;;;;21.40;85.40;;;;;;5075173;28;20403;-55
2023/05/19 01:54:29;;;;;;;;;;;21.40;85.50;;;;;;5057206;28;19913;-50
2023/05/19 01:57:02;;;;;;;;;;;21.40;85.60;;;;;;5075385;28;19913;-51
2023/05/19 01:59:57;;;;;;;;;;;21.40;85.60;;;;;;5075179;28;19908;-53
2023/05/19 02:02:37;;;;;;;;;;;21.40;85.80;;;;;;5065425;28;19913;-48
2023/05/19 02:05:08;;;;;;;;;;;21.40;85.70;;;;;;5075063;28;19958;-53
2023/05/19 02:07:43;;;;;;;;;;;21.50;85.70;;;;;;5075029;28;19986;-52
2023/05/19 02:10:21;;;;;;;;;;;21.60;85.30;;;;;;5074677;28;20368;-53
2023/05/19 02:12:49;;;;;;;;;;;21.80;84.90;;;;;;5075120;28;20370;-52
2023/05/19 02:15:16;;;;;;;;;;;22.00;84.30;;;;;;5074638;28;19912;-51
2023/05/19 02:17:46;;;;;;;;;;;22.10;84.00;;;;;;5074449;28;19965;-49
2023/05/19 02:20:12;;;;;;;;;;;22.10;83.80;;;;;;5074516;28;20352;-54
2023/05/19 02:22:37;;;;;;;;;;;22.10;83.70;;;;;;5074540;28;20003;-53
2023/05/19 02:25:02;;;;;;;;;;;22.10;83.70;;;;;;5073448;28;19916;-54
2023/05/19 02:27:28;;;;;;;;;;;22.10;83.80;;;;;;5074554;28;19908;-52
2023/05/19 02:29:54;;;;;;;;;;;22.00;83.80;;;;;;5074489;28;19913;-49
2023/05/19 02:32:20;;;;;;;;;;;22.00;84.00;;;;;;5074411;28;19908;-51
2023/05/19 02:34:45;;;;;;;;;;;21.90;84.10;;;;;;5074418;28;19912;-51
2023/05/19 02:37:12;;;;;;;;;;;21.80;84.20;;;;;;5074417;28;19925;-50
2023/05/19 02:39:38;;;;;;;;;;;21.80;84.40;;;;;;5074180;28;20250;-50
2023/05/19 02:42:03;;;;;;;;;;;21.80;84.50;;;;;;5074054;28;19991;-52
2023/05/19 02:44:29;;;;;;;;;;;21.70;84.60;;;;;;5074369;28;19920;-53
2023/05/19 02:46:54;;;;;;;;;;;21.70;84.80;;;;;;5074274;28;19961;-53
2023/05/19 02:49:20;;;;;;;;;;;21.60;84.90;;;;;;5056398;28;20021;-49
2023/05/19 02:51:45;;;;;;;;;;;21.60;85.10;;;;;;5074555;28;20408;-51
2023/05/19 02:54:11;;;;;;;;;;;21.50;85.10;;;;;;5073828;28;19921;-52
2023/05/19 02:56:36;;;;;;;;;;;21.50;85.30;;;;;;5074264;28;19912;-52
2023/05/19 02:59:01;;;;;;;;;;;21.50;85.40;;;;;;5074161;28;19931;-52
2023/05/19 03:01:27;;;;;;;;;;;21.40;85.40;;;;;;5074128;28;19909;-51
2023/05/19 03:03:52;;;;;;;;;;;21.40;85.50;;;;;;5073709;28;19909;-54
2023/05/19 03:06:18;;;;;;;;;;;21.40;85.40;;;;;;5073777;28;19909;-50
2023/05/19 03:08:43;;;;;;;;;;;21.50;85.80;;;;;;5073919;28;20371;-52
2023/05/19 03:11:09;;;;;;;;;;;21.60;85.00;;;;;;5073641;28;19978;-53
2023/05/19 03:13:35;;;;;;;;;;;21.80;84.50;;;;;;5073996;28;19978;-52
2023/05/19 03:16:02;;;;;;;;;;;22.00;84.10;;;;;;5073917;28;19916;-53
2023/05/19 03:18:27;;;;;;;;;;;22.10;83.80;;;;;;5056043;28;19916;-52
2023/05/19 03:20:53;;;;;;;;;;;22.20;83.60;;;;;;5073635;28;19961;-54
2023/05/19 03:23:19;;;;;;;;;;;22.20;83.50;;;;;;5073816;28;19909;-51
2023/05/19 03:25:44;;;;;;;;;;;22.10;83.50;;;;;;5056215;28;20270;-52
2023/05/19 03:28:10;;;;;;;;;;;22.10;83.60;;;;;;5073475;28;20003;-51
2023/05/19 03:30:36;;;;;;;;;;;22.10;83.70;;;;;;5055626;28;19909;-52
2023/05/19 03:33:01;;;;;;;;;;;22.00;83.80;;;;;;5073729;28;19908;-53
2023/05/19 03:35:27;;;;;;;;;;;22.00;84.00;;;;;;5074283;28;19947;-51
2023/05/19 03:37:52;;;;;;;;;;;21.90;84.10;;;;;;5077608;28;19913;-49
2023/05/19 03:40:18;;;;;;;;;;;21.80;84.30;;;;;;5077640;28;20366;-53
2023/05/19 03:42:43;;;;;;;;;;;21.80;84.40;;;;;;5092983;28;20012;-53
2023/05/19 03:45:09;;;;;;;;;;;21.70;84.50;;;;;;5077566;28;19908;-50
2023/05/19 03:47:34;;;;;;;;;;;21.70;84.70;;;;;;5077359;28;19908;-54
2023/05/19 03:50:00;;;;;;;;;;;21.60;84.80;;;;;;5077412;28;19912;-53
2023/05/19 03:52:26;;;;;;;;;;;21.60;85.00;;;;;;5077660;28;19908;-53
2023/05/19 03:54:52;;;;;;;;;;;21.50;85.00;;;;;;5077020;28;20016;-52
2023/05/19 03:57:18;;;;;;;;;;;21.50;85.10;;;;;;5077165;28;19913;-53
2023/05/19 03:59:43;;;;;;;;;;;21.50;85.30;;;;;;5076834;28;19915;-52
2023/05/19 04:02:09;;;;;;;;;;;21.40;85.30;;;;;;5077542;28;19909;-53
2023/05/19 04:04:36;;;;;;;;;;;21.40;85.40;;;;;;5092468;28;19915;-55
2023/05/19 04:07:02;;;;;;;;;;;21.40;85.40;;;;;;5076682;28;20003;-49
2023/05/19 04:09:27;;;;;;;;;;;21.40;85.40;;;;;;5076872;28;20379;-53
2023/05/19 04:11:53;;;;;;;;;;;21.50;85.20;;;;;;5076580;28;20421;-54
2023/05/19 04:14:19;;;;;;;;;;;21.60;85.00;;;;;;5076584;28;20398;-49
2023/05/19 04:16:44;;;;;;;;;;;21.80;84.60;;;;;;5076753;28;19912;-52
2023/05/19 04:19:10;;;;;;;;;;;21.90;84.20;;;;;;5076426;28;20368;-52
2023/05/19 04:21:35;;;;;;;;;;;22.00;84.00;;;;;;5076284;28;19913;-49
2023/05/19 04:24:01;;;;;;;;;;;22.00;83.80;;;;;;5076690;28;19912;-55
2023/05/19 04:26:29;;;;;;;;;;;22.00;83.80;;;;;;5076522;28;20379;-54
2023/05/19 04:28:56;;;;;;;;;;;22.00;83.90;;;;;;5076447;28;19909;-51
2023/05/19 04:31:22;;;;;;;;;;;22.00;83.90;;;;;;5076039;28;19908;-53
2023/05/19 04:33:49;;;;;;;;;;;21.90;84.00;;;;;;5076581;28;19948;-54
2023/05/19 04:36:16;;;;;;;;;;;21.90;84.10;;;;;;5075991;28;19923;-53
2023/05/19 04:38:41;;;;;;;;;;;21.90;84.30;;;;;;5076059;28;20390;-55
2023/05/19 04:41:09;;;;;;;;;;;21.80;84.50;;;;;;5076049;28;19908;-53
2023/05/19 04:43:35;;;;;;;;;;;21.80;84.60;;;;;;5076397;28;19920;-54
2023/05/19 04:46:04;;;;;;;;;;;21.70;84.70;;;;;;5075953;28;19912;-54
2023/05/19 04:48:32;;;;;;;;;;;21.70;84.80;;;;;;5074584;28;20309;-51
2023/05/19 04:51:00;;;;;;;;;;;21.60;84.90;;;;;;5075851;28;20214;-50
2023/05/19 04:53:28;;;;;;;;;;;21.60;85.00;;;;;;5076138;28;19916;-50
2023/05/19 04:55:55;;;;;;;;;;;21.60;85.10;;;;;;5058025;28;19956;-55
2023/05/19 04:58:21;;;;;;;;;;;21.50;85.20;;;;;;5075953;28;19917;-52
2023/05/19 05:00:46;;;;;;;;;;;21.50;85.30;;;;;;5075725;28;20279;-52
2023/05/19 05:03:13;;;;;;;;;;;21.50;85.30;;;;;;5075767;28;19914;-49
2023/05/19 05:05:38;;;;;;;;;;;21.50;85.30;;;;;;5057732;28;20347;-54
2023/05/19 05:08:04;;;;;;;;;;;21.60;85.20;;;;;;5075711;28;20007;-49
2023/05/19 05:10:30;;;;;;;;;;;21.70;85.40;;;;;;5075392;28;19909;-52
2023/05/19 05:12:55;;;;;;;;;;;21.90;84.50;;;;;;5075729;28;19908;-54
2023/05/19 05:15:21;;;;;;;;;;;22.00;84.10;;;;;;5075212;28;19931;-53
2023/05/19 05:17:46;;;;;;;;;;;22.10;83.80;;;;;;5075271;28;19913;-52
2023/05/19 05:20:12;;;;;;;;;;;22.20;83.70;;;;;;5075186;28;19909;-53
2023/05/19 05:22:38;;;;;;;;;;;22.10;83.50;;;;;;5057459;28;19916;-52
2023/05/19 05:25:04;;;;;;;;;;;22.10;83.60;;;;;;5075519;28;19916;-51
2023/05/19 05:27:30;;;;;;;;;;;22.10;83.70;;;;;;5075017;28;20279;-54
2023/05/19 05:29:55;;;;;;;;;;;22.10;83.80;;;;;;5075132;28;20007;-49
2023/05/19 05:32:21;;;;;;;;;;;22.00;83.90;;;;;;5075523;28;19919;-52
2023/05/19 05:34:47;;;;;;;;;;;22.00;84.00;;;;;;5075015;28;19916;-51
2023/05/19 05:37:12;;;;;;;;;;;21.90;84.20;;;;;;5075068;28;19912;-52
2023/05/19 05:39:38;;;;;;;;;;;21.90;84.30;;;;;;5057078;28;19908;-53
2023/05/19 05:42:03;;;;;;;;;;;21.90;84.50;;;;;;5056942;28;19909;-51
2023/05/19 05:44:29;;;;;;;;;;;21.80;84.60;;;;;;5075077;28;19920;-54
2023/05/19 05:46:55;;;;;;;;;;;21.80;84.70;;;;;;5057061;28;19912;-49
2023/05/19 05:49:20;;;;;;;;;;;21.70;84.80;;;;;;5074303;28;20010;-48
2023/05/19 05:51:46;;;;;;;;;;;21.60;84.90;;;;;;5075363;28;19920;-52
2023/05/19 05:54:12;;;;;;;;;;;21.60;85.00;;;;;;5056768;28;20397;-52
2023/05/19 05:56:37;;;;;;;;;;;21.60;85.10;;;;;;5074534;28;20371;-51
2023/05/19 05:59:04;;;;;;;;;;;21.50;85.20;;;;;;5074642;28;19952;-53
2023/05/19 06:01:30;;;;;;;;;;;21.50;85.30;;;;;;5074509;28;19914;-53
2023/05/19 06:03:55;;;;;;;;;;;21.60;85.30;;;;;;5074457;28;19999;-52
2023/05/19 06:06:20;;;;;;;;;;;21.60;85.20;;;;;;5056655;28;19919;-53
2023/05/19 06:08:46;;;;;;;;;;;21.70;85.00;;;;;;5074433;28;20346;-51
2023/05/19 06:11:11;;;;;;;;;;;21.80;84.60;;;;;;5074042;28;19954;-52
2023/05/19 06:13:37;;;;;;;;;;;22.00;84.20;;;;;;5074103;28;19909;-50
2023/05/19 06:16:03;;;;;;;;;;;22.10;83.90;;;;;;5073851;28;20386;-47
2023/05/19 06:18:29;;;;;;;;;;;22.20;83.80;;;;;;5074059;28;20062;-56
2023/05/19 06:20:54;;;;;;;;;;;22.20;83.70;;;;;;5074017;28;20368;-53
2023/05/19 06:23:20;;;;;;;;;;;22.20;83.70;;;;;;5073833;28;19927;-52
2023/05/19 06:25:45;;;;;;;;;;;22.20;83.70;;;;;;5074243;28;19962;-54
2023/05/19 06:28:11;;;;;;;;;;;22.10;84.40;;;;;;5073812;28;19909;-48
2023/05/19 06:30:36;;;;;;;;;;;22.10;84.00;;;;;;5074012;28;19908;-54
2023/05/19 06:33:02;;;;;;;;;;;22.00;84.00;;;;;;5074085;28;19940;-54
2023/05/19 06:35:28;;;;;;;;;;;22.00;84.10;;;;;;5073731;28;19966;-52
2023/05/19 06:37:55;;;;;;;;;;;21.90;84.30;;;;;;5056599;28;20244;-53
2023/05/19 06:40:20;;;;;;;;;;;21.90;84.40;;;;;;5074109;28;19908;-52
2023/05/19 06:42:46;;;;;;;;;;;21.80;84.60;;;;;;5073771;28;20308;-54
2023/05/19 06:45:11;;;;;;;;;;;21.80;84.70;;;;;;5073932;28;19919;-54
2023/05/19 06:47:37;;;;;;;;;;;21.70;84.80;;;;;;5073563;28;19953;-51
2023/05/19 06:50:02;;;;;;;;;;;21.70;84.90;;;;;;5073950;28;19908;-51
2023/05/19 06:52:28;;;;;;;;;;;21.60;85.00;;;;;;5073613;28;19908;-52
2023/05/19 06:54:53;;;;;;;;;;;21.60;85.10;;;;;;5073731;28;19935;-52
2023/05/19 06:57:19;;;;;;;;;;;21.60;85.30;;;;;;5073435;28;19912;-50
2023/05/19 06:59:45;;;;;;;;;;;21.60;85.30;;;;;;5073403;28;20218;-50
2023/05/19 07:02:11;;;;;;;;;;;21.60;85.30;;;;;;5055892;28;19920;-50
2023/05/19 07:04:36;;;;;;;;;;;21.60;85.20;;;;;;5074066;28;19916;-54
2023/05/19 07:07:02;;;;;;;;;;;21.70;85.20;;;;;;5055260;28;19909;-51
2023/05/19 07:09:27;;;;;;;;;;;21.70;85.00;;;;;;5073374;28;19908;-52
2023/05/19 07:11:55;;;;;;;;;;;21.80;84.70;;;;;;5072770;28;19915;-52
2023/05/19 07:14:20;;;;;;;;;;;21.90;84.50;;;;;;5073765;28;19958;-52
2023/05/19 07:16:46;;;;;;;;;;;21.90;84.30;;;;;;5073441;28;19912;-51
2023/05/19 07:19:11;;;;;;;;;;;22.00;84.20;;;;;;5072997;28;19962;-52
2023/05/19 07:21:37;;;;;;;;;;;22.00;84.20;;;;;;5088883;28;19919;-53
2023/05/19 07:24:02;;;;;;;;;;;22.00;84.20;;;;;;5073404;28;19984;-53
2023/05/19 07:26:28;;;;;;;;;;;21.90;84.20;;;;;;5073059;28;19934;-53
2023/05/19 07:28:53;;;;;;;;;;;21.90;84.30;;;;;;5055540;28;20319;-53
2023/05/19 07:31:19;;;;;;;;;;;21.90;84.40;;;;;;5073202;28;20283;-51
2023/05/19 07:33:44;;;;;;;;;;;21.80;84.50;;;;;;5073007;28;19908;-52
2023/05/19 07:36:10;;;;;;;;;;;21.80;84.60;;;;;;5073008;28;19935;-51
2023/05/19 07:38:35;;;;;;;;;;;21.70;84.70;;;;;;5073138;28;19912;-52
2023/05/19 07:41:01;;;;;;;;;;;21.70;84.80;;;;;;5088771;28;20351;-51
2023/05/19 07:43:27;;;;;;;;;;;21.70;84.90;;;;;;5054969;28;19920;-53
2023/05/19 07:45:54;;;;;;;;;;;21.60;85.00;;;;;;5072933;28;19908;-54
2023/05/19 07:48:21;;;;;;;;;;;21.60;85.10;;;;;;5073105;28;19915;-52
2023/05/19 07:50:47;;;;;;;;;;;21.60;85.20;;;;;;5072998;28;19908;-53
2023/05/19 07:53:13;;;;;;;;;;;21.60;85.30;;;;;;5072775;28;20386;-54
2023/05/19 07:55:38;;;;;;;;;;;21.60;85.40;;;;;;5088752;28;20011;-53
2023/05/19 07:58:04;;;;;;;;;;;21.50;85.30;;;;;;5073164;28;19958;-49
2023/05/19 08:00:30;;;;;;;;;;;21.60;85.40;;;;;;5073073;28;19954;-53
2023/05/19 08:02:56;;;;;;;;;;;21.60;85.40;;;;;;5055284;28;20082;-52
2023/05/19 08:05:21;;;;;;;;;;;21.60;85.30;;;;;;5073078;28;19956;-51
2023/05/19 08:07:47;;;;;;;;;;;21.60;85.30;;;;;;5072807;28;19958;-53
2023/05/19 08:10:12;;;;;;;;;;;21.60;85.20;;;;;;5072808;28;19952;-52
2023/05/19 08:12:38;;;;;;;;;;;21.60;85.20;;;;;;5073169;28;20007;-48
2023/05/19 08:15:03;;;;;;;;;;;21.60;85.10;;;;;;5054855;28;19912;-51
2023/05/19 08:17:29;;;;;;;;;;;21.60;85.10;;;;;;5073058;28;19912;-51
2023/05/19 08:19:54;;;;;;;;;;;21.70;85.00;;;;;;5073059;28;20023;-53
2023/05/19 08:22:20;;;;;;;;;;;21.60;85.00;;;;;;5073781;28;19943;-53
2023/05/19 08:24:48;;;;;;;;;;;21.60;85.00;;;;;;5076309;28;19908;-52
2023/05/19 08:27:14;;;;;;;;;;;21.60;84.90;;;;;;5076192;28;19912;-53
2023/05/19 08:29:39;;;;;;;;;;;21.60;85.00;;;;;;5076040;28;20322;-52
2023/05/19 08:32:05;;;;;;;;;;;21.60;84.90;;;;;;5076742;28;19908;-53
2023/05/19 08:34:31;;;;;;;;;;;21.60;85.00;;;;;;5076069;28;20302;-53
2023/05/19 08:36:57;;;;;;;;;;;21.60;85.00;;;;;;5076282;28;19919;-48
2023/05/19 08:39:25;;;;;;;;;;;21.60;85.00;;;;;;5076311;28;19916;-49
2023/05/19 08:41:51;;;;;;;;;;;21.60;85.00;;;;;;5075769;28;19942;-53
2023/05/19 08:44:17;;;;;;;;;;;21.50;85.00;;;;;;5057830;28;20394;-50
2023/05/19 08:46:42;;;;;;;;;;;21.60;85.10;;;;;;5075615;28;19913;-49
2023/05/19 08:49:10;;;;;;;;;;;21.60;85.10;;;;;;5076065;28;19908;-52
2023/05/19 08:51:51;;;;;;;;;;;21.50;85.10;;;;;;5076060;28;19962;-52
2023/05/19 08:54:19;;;;;;;;;;;21.50;85.10;;;;;;5075719;28;20406;-54
2023/05/19 08:56:45;;;;;;;;;;;21.50;85.10;;;;;;5075877;28;19932;-53
2023/05/19 08:59:12;;;;;;;;;;;21.50;85.10;;;;;;5058080;28;19912;-53
2023/05/19 09:01:38;;;;;;;;;;;21.50;85.00;;;;;;5075967;28;19997;-54
2023/05/19 09:04:04;;;;;;;;;;;21.50;85.10;;;;;;5075548;28;20432;-53
2023/05/19 09:06:31;;;;;;;;;;;21.60;85.10;;;;;;5075705;28;19908;-53
2023/05/19 09:08:56;;;;;;;;;;;21.60;85.10;;;;;;5075923;28;20381;-52
2023/05/19 09:11:22;;;;;;;;;;;21.60;85.50;;;;;;5075705;28;19912;-50
2023/05/19 09:13:48;;;;;;;;;;;21.60;84.90;;;;;;5075544;28;20366;-55
2023/05/19 09:16:14;;;;;;;;;;;21.60;84.90;;;;;;5057411;28;20359;-55
2023/05/19 09:18:52;;;;;;;;;;;21.60;84.80;;;;;;5075292;28;19965;-54
2023/05/19 09:21:17;;;;;;;;;;;21.70;85.30;;;;;;5075352;28;19909;-52
2023/05/19 09:23:45;;;;;;;;;;;21.70;84.70;;;;;;5075522;28;19909;-52
2023/05/19 09:26:11;;;;;;;;;;;21.80;84.60;;;;;;5057669;28;19913;-54
2023/05/19 09:28:37;;;;;;;;;;;21.80;84.60;;;;;;5075178;28;19909;-55
2023/05/19 09:31:03;;;;;;;;;;;21.80;84.50;;;;;;5075166;28;19912;-54
2023/05/19 09:33:31;;;;;;;;;;;21.80;84.40;;;;;;5056739;28;19986;-54
2023/05/19 09:35:57;;;;;;;;;;;21.80;84.40;;;;;;5074784;28;19912;-53
2023/05/19 09:38:28;;;;;;;;;;;21.80;84.30;;;;;;5074871;28;19970;-54
2023/05/19 09:40:58;;;;;;;;;;;21.80;84.30;;;;;;5057003;28;20335;-51
2023/05/19 09:43:26;;;;;;;;;;;21.90;84.30;;;;;;5074709;28;19936;-53
2023/05/19 09:46:04;;;;;;;;;;;21.90;84.30;;;;;;5074840;28;19960;-52
2023/05/19 09:48:30;;;;;;;;;;;21.80;84.30;;;;;;5074460;28;19908;-54
2023/05/19 09:50:56;;;;;;;;;;;21.80;84.30;;;;;;5074394;28;20247;-54
2023/05/19 09:53:23;;;;;;;;;;;21.80;84.30;;;;;;5074553;28;19908;-52
2023/05/19 09:55:50;;;;;;;;;;;21.80;84.30;;;;;;5056283;28;19913;-55
2023/05/19 09:58:17;;;;;;;;;;;21.80;84.30;;;;;;5074487;28;20414;-51
2023/05/19 10:00:43;;;;;;;;;;;21.80;84.30;;;;;;5056962;28;19958;-53
2023/05/19 10:03:08;;;;;;;;;;;21.80;84.30;;;;;;5074929;28;20266;-51
2023/05/19 10:05:34;;;;;;;;;;;21.80;84.30;;;;;;5074454;28;19931;-52
2023/05/19 10:08:01;;;;;;;;;;;21.80;84.30;;;;;;5074554;28;19909;-53
2023/05/19 10:10:27;;;;;;;;;;;21.80;84.30;;;;;;5074637;28;19977;-52
2023/05/19 10:12:53;;;;;;;;;;;21.80;84.30;;;;;;5074441;28;19975;-53
2023/05/19 10:15:19;;;;;;;;;;;21.80;84.30;;;;;;5090021;28;19951;-52
2023/05/19 10:17:45;;;;;;;;;;;21.80;84.90;;;;;;5074317;28;20378;-53
2023/05/19 10:20:14;;;;;;;;;;;21.80;84.30;;;;;;5074356;28;19909;-54
2023/05/19 10:22:40;;;;;;;;;;;21.80;84.40;;;;;;5056641;28;19958;-51
2023/05/19 10:25:06;;;;;;;;;;;21.80;84.40;;;;;;5074226;28;19963;-53
2023/05/19 10:27:34;;;;;;;;;;;21.80;84.40;;;;;;5073998;28;19960;-53
2023/05/19 10:30:03;;;;;;;;;;;21.80;84.40;;;;;;5073779;28;20415;-53
2023/05/19 10:32:30;;;;;;;;;;;21.80;84.50;;;;;;5073903;28;20334;-52
2023/05/19 10:35:09;;;;;;;;;;;21.80;84.50;;;;;;5056024;28;20295;-51
2023/05/19 10:37:52;;;;;;;;;;;21.70;84.40;;;;;;5073643;28;19995;-53
2023/05/19 10:40:23;;;;;;;;;;;21.80;84.50;;;;;;5074105;28;19912;-53
2023/05/19 10:43:01;;;;;;;;;;;21.70;84.50;;;;;;5089418;28;19920;-53
2023/05/19 10:45:27;;;;;;;;;;;21.70;84.50;;;;;;5073192;28;19908;-54
2023/05/19 10:47:53;;;;;;;;;;;21.70;84.50;;;;;;5073721;28;20275;-53
2023/05/19 10:50:19;;;;;;;;;;;21.70;84.50;;;;;;5074151;28;19915;-54
2023/05/19 10:52:51;;;;;;;;;;;21.70;84.60;;;;;;5073465;28;19908;-49
2023/05/19 10:55:36;;;;;;;;;;;21.70;84.60;;;;;;5073499;28;19913;-50
2023/05/19 10:58:02;;;;;;;;;;;21.70;84.60;;;;;;5073172;28;19912;-52
2023/05/19 11:00:28;;;;;;;;;;;21.70;84.60;;;;;;5073660;28;19961;-53
2023/05/19 11:03:10;;;;;;;;;;;21.70;84.60;;;;;;5055449;28;19961;-52
2023/05/19 11:05:36;;;;;;;;;;;21.70;84.60;;;;;;5073739;28;19909;-50
2023/05/19 11:08:04;;;;;;;;;;;21.70;84.60;;;;;;5073615;28;19977;-51
2023/05/19 11:10:29;;;;;;;;;;;21.70;84.60;;;;;;5073612;28;19915;-52
2023/05/19 11:12:58;;;;;;;;;;;21.70;84.50;;;;;;5073097;28;19908;-53
2023/05/19 11:15:27;;;;;;;;;;;21.70;84.50;;;;;;5055380;28;19913;-54
2023/05/19 11:17:52;;;;;;;;;;;21.70;84.50;;;;;;5073440;28;19923;-53
2023/05/19 11:20:25;;;;;;;;;;;21.70;84.40;;;;;;5073564;28;20007;-55
2023/05/19 11:23:06;;;;;;;;;;;21.80;84.40;;;;;;5073660;28;19912;-53
2023/05/19 11:25:41;;;;;;;;;;;21.80;84.30;;;;;;5073369;28;19909;-51
2023/05/19 11:28:09;;;;;;;;;;;21.80;84.30;;;;;;5073284;28;19938;-53
2023/05/19 11:30:34;;;;;;;;;;;21.80;84.20;;;;;;5073242;28;20046;-49
2023/05/19 11:33:00;;;;;;;;;;;21.80;84.20;;;;;;5073078;28;19999;-52
2023/05/19 11:35:26;;;;;;;;;;;21.80;84.10;;;;;;5072669;28;19912;-54
2023/05/19 11:37:53;;;;;;;;;;;21.90;84.20;;;;;;5055399;28;19963;-53
2023/05/19 11:40:20;;;;;;;;;;;21.90;84.10;;;;;;5073392;28;20003;-52
2023/05/19 11:42:45;;;;;;;;;;;21.90;84.10;;;;;;5072950;28;20279;-53
2023/05/19 11:45:11;;;;;;;;;;;21.90;84.00;;;;;;5072963;28;19912;-52
2023/05/19 11:47:37;;;;;;;;;;;21.90;84.00;;;;;;5072837;28;19916;-52
2023/05/19 11:50:02;;;;;;;;;;;21.90;84.00;;;;;;5055104;28;19915;-52
2023/05/19 11:52:28;;;;;;;;;;;21.90;84.00;;;;;;5073418;28;19915;-51
2023/05/19 11:54:53;;;;;;;;;;;21.90;84.60;;;;;;5073179;28;19916;-51
2023/05/19 11:57:19;;;;;;;;;;;21.90;84.00;;;;;;5057366;28;19920;-54
2023/05/19 11:59:47;;;;;;;;;;;21.90;84.00;;;;;;5077063;28;19987;-52
2023/05/19 12:02:15;;;;;;;;;;;21.90;84.60;;;;;;5077057;28;20007;-54
2023/05/19 12:04:41;;;;;;;;;;;21.90;84.10;;;;;;5092674;28;19908;-49
2023/05/19 12:07:07;;;;;;;;;;;21.90;84.10;;;;;;5077047;28;19995;-52
2023/05/19 12:09:32;;;;;;;;;;;21.80;84.10;;;;;;5076517;28;19915;-52
2023/05/19 12:11:58;;;;;;;;;;;21.80;84.20;;;;;;5076163;28;19987;-51
2023/05/19 12:14:24;;;;;;;;;;;21.80;84.20;;;;;;5076421;28;19909;-52
2023/05/19 12:16:50;;;;;;;;;;;21.80;84.30;;;;;;5092013;28;19913;-53
2023/05/19 12:19:15;;;;;;;;;;;21.80;84.30;;;;;;5076386;28;19977;-50
2023/05/19 12:21:41;;;;;;;;;;;21.70;84.30;;;;;;5058821;28;19912;-51
2023/05/19 12:24:07;;;;;;;;;;;21.70;84.30;;;;;;5076550;28;19908;-53
2023/05/19 12:26:33;;;;;;;;;;;21.70;84.40;;;;;;5076599;28;19908;-53
2023/05/19 12:28:59;;;;;;;;;;;21.70;84.40;;;;;;5076191;28;19919;-51
2023/05/19 12:31:24;;;;;;;;;;;21.70;84.50;;;;;;5076041;28;20003;-49
2023/05/19 12:33:50;;;;;;;;;;;21.70;84.50;;;;;;5076171;28;19916;-51
2023/05/19 12:36:16;;;;;;;;;;;21.70;84.50;;;;;;5076045;28;20252;-53
2023/05/19 12:38:42;;;;;;;;;;;21.70;84.50;;;;;;5076208;28;19912;-52
2023/05/19 12:41:09;;;;;;;;;;;21.70;84.50;;;;;;5076184;28;19991;-50
2023/05/19 12:43:35;;;;;;;;;;;21.70;84.50;;;;;;5076003;28;19931;-53
2023/05/19 12:46:10;;;;;;;;;;;21.70;84.50;;;;;;5075875;28;20423;-54
2023/05/19 12:48:40;;;;;;;;;;;21.70;84.50;;;;;;5091739;28;19916;-50
2023/05/19 12:51:06;;;;;;;;;;;21.70;84.50;;;;;;5075403;28;19912;-54
2023/05/19 12:53:31;;;;;;;;;;;21.70;84.40;;;;;;5057973;28;19954;-54
2023/05/19 12:55:57;;;;;;;;;;;21.70;84.40;;;;;;5075458;28;19919;-54
2023/05/19 12:58:23;;;;;;;;;;;21.80;84.40;;;;;;5075573;28;20011;-53
2023/05/19 13:00:49;;;;;;;;;;;21.80;84.40;;;;;;5091433;28;20401;-52
2023/05/19 13:03:15;;;;;;;;;;;21.80;84.30;;;;;;5075555;28;19909;-51
2023/05/19 13:05:42;;;;;;;;;;;21.80;84.30;;;;;;5075155;28;20011;-52
2023/05/19 13:08:09;;;;;;;;;;;21.80;84.20;;;;;;5074236;28;19908;-51
2023/05/19 13:10:35;;;;;;;;;;;21.80;84.20;;;;;;5075443;28;20289;-53
2023/05/19 13:13:01;;;;;;;;;;;21.90;84.20;;;;;;5075599;28;19950;-50
2023/05/19 13:15:30;;;;;;;;;;;21.90;84.20;;;;;;5075241;28;19919;-53
2023/05/19 13:17:56;;;;;;;;;;;21.80;84.10;;;;;;5075515;28;19916;-51
2023/05/19 13:20:21;;;;;;;;;;;21.80;84.10;;;;;;5057404;28;19916;-54
2023/05/19 13:22:47;;;;;;;;;;;21.90;84.20;;;;;;5075287;28;19932;-53
2023/05/19 13:25:13;;;;;;;;;;;21.80;84.10;;;;;;5075090;28;19909;-53
2023/05/19 13:27:39;;;;;;;;;;;21.90;84.20;;;;;;5074628;28;19908;-50
2023/05/19 13:30:05;;;;;;;;;;;21.90;84.20;;;;;;5074598;28;19978;-54
2023/05/19 13:32:30;;;;;;;;;;;21.80;84.20;;;;;;5090076;28;20352;-53
2023/05/19 13:34:56;;;;;;;;;;;21.80;84.30;;;;;;5074408;28;19951;-53
2023/05/19 13:37:22;;;;;;;;;;;21.80;84.30;;;;;;5074825;28;19923;-53
2023/05/19 13:39:47;;;;;;;;;;;21.80;84.30;;;;;;5075107;28;19908;-53
2023/05/19 13:42:12;;;;;;;;;;;21.80;84.30;;;;;;5074429;28;19913;-54
2023/05/19 13:44:38;;;;;;;;;;;21.90;84.40;;;;;;5075149;28;19925;-53
2023/05/19 13:47:03;;;;;;;;;;;21.80;84.30;;;;;;5074920;28;20378;-50
2023/05/19 13:49:29;;;;;;;;;;;21.80;84.40;;;;;;5074724;28;20003;-53
2023/05/19 13:51:56;;;;;;;;;;;21.80;84.30;;;;;;5074833;28;19915;-52
2023/05/19 13:54:22;;;;;;;;;;;21.80;84.40;;;;;;5074578;28;19954;-52
2023/05/19 13:56:47;;;;;;;;;;;21.80;84.40;;;;;;5074276;28;19951;-54
2023/05/19 13:59:13;;;;;;;;;;;21.80;84.50;;;;;;5074438;28;20312;-54
2023/05/19 14:01:38;;;;;;;;;;;21.80;84.50;;;;;;5074194;28;20359;-50
2023/05/19 14:04:04;;;;;;;;;;;21.80;84.50;;;;;;5074487;28;20347;-55
2023/05/19 14:06:29;;;;;;;;;;;21.80;84.50;;;;;;5074359;28;20007;-54
2023/05/19 14:08:55;;;;;;;;;;;21.80;84.60;;;;;;5074595;28;20347;-52
2023/05/19 14:11:21;;;;;;;;;;;21.70;84.60;;;;;;5074201;28;20057;-53
2023/05/19 14:13:50;;;;;;;;;;;21.70;84.70;;;;;;5074006;28;19915;-51